Weather History for West Yellowstone, MT

Change the Weather History Date:

Sunday, June 16, 2013

  Actual Average Record
Temperature  
Mean Temperature 50 °F -  
Max Temperature 73 °F 66 °F 73 °F (2013)
Min Temperature 26 °F 36 °F 26 °F (2013)
Degree Days  
Heating Degree Days 16    
Moisture  
Dew Point 48 °F    
Average Humidity 87    
Maximum Humidity 100    
Minimum Humidity 80    
Precipitation  
Precipitation 0.00 in - - ()
Sea Level Pressure  
Sea Level Pressure 30.19 in    
Wind  
Wind Speed 2 mph (NW)    
Max Wind Speed 14 mph    
Max Gust Speed 30 mph    
Visibility 10 miles    
Events      
Averages and records for this station are not official NWS values.
T = Trace of Precipitation, MM = Missing Value Source: NWS Daily Summary

Daily Weather History Graph

Daily Weather History Graph

Search for Another Location

Airport:

Trip Planner

Search our weather history database for the weather conditions in past years. The results will help you decide how hot, cold, wet, or windy it might be!

Date:

Astronomy

Jun. 16, 2013 Rise Set
Actual Time 5:38 AM MDT 9:12 PM MDT
Civil Twilight 5:01 AM MDT 9:49 PM MDT
Nautical Twilight 4:12 AM MDT 10:38 PM MDT
Astronomical Twilight 3:08 AM MDT 11:42 PM MDT
Moon 1:36 PM MDT (6/16) 1:02 AM MDT (6/16)
Length of Visible Light 16h 48m
Length of Day
15h 33m
Waxing Crescent, 50% of the Moon is Illuminated
Jun 16
Waxing Crescent
Jun 23
Full
Jun 29
Last Quarter
Jul 8
New
Jul 15
First Quarter

Hourly Weather History & Observations

Time (MDT) Temp. Windchill Dew Point Humidity Pressure Visibility Wind Dir Wind Speed Gust Speed Precip Events Conditions
12:10 AM 35.6 °F - 32.0 °F 87% 30.18 in 10.0 mi Calm Calm - N/A   Clear
12:30 AM 35.6 °F - 32.0 °F 87% 30.18 in 10.0 mi Calm Calm - N/A   Clear
12:50 AM 32.0 °F - 28.4 °F 87% 30.18 in 10.0 mi Calm Calm - N/A   Clear
1:10 AM 32.0 °F - 28.4 °F 87% 30.18 in 10.0 mi Calm Calm - N/A   Clear
1:30 AM 32.0 °F - 28.4 °F 87% 30.18 in 10.0 mi Calm Calm - N/A   Clear
1:50 AM 32.0 °F - 26.6 °F 80% 30.18 in 10.0 mi Calm Calm - N/A   Clear
2:10 AM 30.2 °F - 26.6 °F 86% 30.19 in 10.0 mi Calm Calm - N/A   Clear
2:30 AM 30.2 °F - 26.6 °F 86% 30.19 in 10.0 mi Calm Calm - N/A   Clear
2:50 AM 28.4 °F - 24.8 °F 86% 30.19 in 10.0 mi Calm Calm - N/A   Clear
3:10 AM 28.4 °F - 24.8 °F 86% 30.19 in 10.0 mi Calm Calm - N/A   Clear
3:30 AM 28.4 °F - 28.4 °F 100% 30.19 in 10.0 mi Calm Calm - N/A   Clear
3:50 AM 28.4 °F 24.6 °F 28.4 °F 100% 30.19 in 10.0 mi South 3.5 mph - N/A   Clear
4:10 AM 28.4 °F - 28.4 °F 100% 30.20 in 10.0 mi Calm Calm - N/A   Clear
4:30 AM 28.4 °F - 28.4 °F 100% 30.20 in 10.0 mi Calm Calm - N/A   Clear
4:50 AM 28.4 °F - 26.6 °F 93% 30.20 in 10.0 mi Calm Calm - N/A   Clear
5:10 AM 28.4 °F - 26.6 °F 93% 30.20 in 10.0 mi Calm Calm - N/A   Clear
5:30 AM 26.6 °F - 24.8 °F 93% 30.21 in 10.0 mi Calm Calm - N/A   Clear
5:50 AM 26.6 °F - 24.8 °F 93% 30.21 in 10.0 mi Calm Calm - N/A   Clear
6:10 AM 28.4 °F - 24.8 °F 86% 30.21 in 10.0 mi Calm Calm - N/A   Clear
6:30 AM 30.2 °F - 30.2 °F 100% 30.22 in 10.0 mi Calm Calm - N/A   Clear
6:50 AM 32.0 °F - 32.0 °F 100% 30.22 in 10.0 mi Calm Calm - N/A   Clear
7:10 AM 33.8 °F - 33.8 °F 100% 30.23 in 10.0 mi Calm Calm - N/A   Clear
7:30 AM 37.4 °F - 37.4 °F 100% 30.23 in 10.0 mi Calm Calm - N/A   Clear
7:50 AM 37.4 °F - 37.4 °F 100% 30.22 in 10.0 mi Calm Calm - N/A   Clear
8:10 AM 41.0 °F - 35.6 °F 81% 30.23 in 10.0 mi Calm Calm - N/A   Clear
8:30 AM 44.6 °F - 39.2 °F 81% 30.23 in 10.0 mi Calm Calm - N/A   Clear
8:50 AM 46.4 °F - 41.0 °F 81% 30.23 in 10.0 mi Calm Calm - N/A   Clear
9:10 AM 48.2 °F - 44.6 °F 87% 30.22 in 10.0 mi Calm Calm - N/A   Clear
9:30 AM 50.0 °F - 46.4 °F 87% 30.22 in 10.0 mi Calm Calm - N/A   Clear
9:50 AM 53.6 °F - 48.2 °F 82% 30.22 in 10.0 mi ENE 3.5 mph - N/A   Clear
10:10 AM 55.4 °F - 50.0 °F 82% 30.21 in 10.0 mi Calm Calm - N/A   Clear
10:30 AM 57.2 °F - 51.8 °F 82% 30.21 in 10.0 mi East 3.5 mph - N/A   Clear
10:50 AM 59.0 °F - 55.4 °F 88% 30.20 in 10.0 mi ENE 3.5 mph - N/A   Clear
11:10 AM 62.6 °F - 57.2 °F 82% 30.20 in 10.0 mi Calm Calm - N/A   Clear
11:30 AM 64.4 °F - 59.0 °F 83% 30.19 in 10.0 mi Calm Calm - N/A   Clear
11:50 AM 66.2 °F - 62.6 °F 88% 30.19 in 10.0 mi West 3.5 mph - N/A   Clear
12:10 PM 68.0 °F - 64.4 °F 88% 30.18 in 10.0 mi SE 3.5 mph - N/A   Clear
12:30 PM 68.0 °F - 64.4 °F 88% 30.18 in 10.0 mi South 5.8 mph - N/A   Clear
12:50 PM 69.8 °F - 64.4 °F 83% 30.17 in 10.0 mi Calm Calm - N/A   Clear
1:10 PM 73.4 °F - 68.0 °F 83% 30.17 in 10.0 mi West 10.4 mph 18.4 mph N/A   Clear
1:30 PM 71.6 °F - 66.2 °F 83% 30.17 in 10.0 mi West 4.6 mph - N/A   Clear
1:50 PM 73.4 °F - 68.0 °F 83% 30.16 in 10.0 mi WSW 5.8 mph 21.9 mph N/A   Clear
2:10 PM 73.4 °F - 68.0 °F 83% 30.16 in 10.0 mi SW 6.9 mph - N/A   Clear
2:30 PM 73.4 °F - 68.0 °F 83% 30.15 in 10.0 mi SSW 13.8 mph 18.4 mph N/A   Partly Cloudy
2:50 PM 73.4 °F - 68.0 °F 83% 30.15 in 10.0 mi WSW 11.5 mph 18.4 mph N/A   Partly Cloudy
3:10 PM 73.4 °F - 68.0 °F 83% 30.14 in 10.0 mi WSW 9.2 mph 16.1 mph N/A   Partly Cloudy
3:30 PM 73.4 °F - 68.0 °F 83% 30.15 in 10.0 mi West 6.9 mph - N/A   Partly Cloudy
3:50 PM 71.6 °F - 66.2 °F 83% 30.14 in 10.0 mi WNW 5.8 mph - N/A   Partly Cloudy
4:10 PM 68.0 °F - 64.4 °F 88% 30.14 in 10.0 mi NW 11.5 mph 19.6 mph N/A   Partly Cloudy
4:30 PM 68.0 °F - 62.6 °F 83% 30.16 in 10.0 mi NW 9.2 mph 25.3 mph N/A   Mostly Cloudy
4:50 PM 66.2 °F - 62.6 °F 88% 30.17 in 10.0 mi NW 13.8 mph 29.9 mph N/A   Scattered Clouds
5:10 PM 66.2 °F - 62.6 °F 88% 30.17 in 10.0 mi North 11.5 mph 20.7 mph N/A   Clear
5:30 PM 66.2 °F - 62.6 °F 88% 30.17 in 10.0 mi NNW 10.4 mph 17.3 mph N/A   Partly Cloudy
5:50 PM 68.0 °F - 62.6 °F 83% 30.17 in 10.0 mi NNW 9.2 mph 16.1 mph N/A   Clear
6:10 PM 68.0 °F - 64.4 °F 88% 30.18 in 10.0 mi NNW 5.8 mph - N/A   Clear
6:30 PM 66.2 °F - 62.6 °F 88% 30.18 in 10.0 mi NNW 9.2 mph - N/A   Clear
6:50 PM 64.4 °F - 59.0 °F 83% 30.18 in 10.0 mi North 6.9 mph - N/A   Clear
7:10 PM 64.4 °F - 59.0 °F 83% 30.17 in 10.0 mi NNW 3.5 mph - N/A   Clear
7:30 PM 64.4 °F - 59.0 °F 83% 30.18 in 10.0 mi NW 4.6 mph - N/A   Partly Cloudy
7:50 PM 64.4 °F - 59.0 °F 83% 30.19 in 10.0 mi NNE 5.8 mph - N/A   Mostly Cloudy
8:10 PM 64.4 °F - 59.0 °F 83% 30.19 in 10.0 mi NE 8.1 mph - N/A   Scattered Clouds
8:30 PM 62.6 °F - 59.0 °F 88% 30.19 in 10.0 mi North 3.5 mph - N/A   Partly Cloudy
8:50 PM 62.6 °F - 57.2 °F 82% 30.19 in 10.0 mi NE 8.1 mph - N/A   Mostly Cloudy
9:10 PM 60.8 °F - 57.2 °F 88% 30.20 in 10.0 mi South 4.6 mph - N/A   Mostly Cloudy
9:30 PM 59.0 °F - 55.4 °F 88% 30.21 in 10.0 mi Calm Calm - N/A   Overcast
9:50 PM 59.0 °F - 55.4 °F 88% 30.22 in 10.0 mi ESE 4.6 mph - N/A   Overcast
10:10 PM 57.2 °F - 51.8 °F 82% 30.23 in 10.0 mi Calm Calm - N/A   Overcast
10:30 PM 55.4 °F - 50.0 °F 82% 30.23 in 10.0 mi SSE 5.8 mph - N/A   Mostly Cloudy
10:50 PM 53.6 °F - 48.2 °F 82% 30.23 in 10.0 mi NNW 4.6 mph - N/A   Partly Cloudy
11:10 PM 50.0 °F - 46.4 °F 87% 30.22 in 10.0 mi NE 4.6 mph - N/A   Clear
11:30 PM 50.0 °F - 44.6 °F 82% 30.23 in 10.0 mi Calm Calm - N/A   Clear
11:50 PM 46.4 °F - 41.0 °F 81% 30.23 in 10.0 mi Calm Calm - N/A   Clear